createdAt,value
2018-12-30T00:01:02.852Z,22.77
2018-12-30T00:03:33.090Z,18.92
2018-12-30T00:06:03.720Z,18.23
2018-12-30T00:08:34.318Z,16.52
2018-12-30T00:11:04.443Z,27.67
2018-12-30T00:13:34.938Z,17.17
2018-12-30T00:16:06.432Z,16.60
2018-12-30T00:18:36.932Z,16.00
2018-12-30T00:21:09.054Z,16.57
2018-12-30T00:23:38.819Z,14.40
2018-12-30T00:26:08.907Z,21.50
2018-12-30T00:28:39.039Z,14.38
2018-12-30T00:31:09.206Z,16.37
2018-12-30T00:33:39.243Z,17.85
2018-12-30T00:36:09.487Z,16.50
2018-12-30T00:38:39.739Z,16.67
2018-12-30T00:41:10.210Z,17.35
2018-12-30T00:43:40.337Z,13.98
2018-12-30T00:46:10.658Z,13.78
2018-12-30T00:48:40.631Z,12.90
2018-12-30T00:51:16.983Z,14.53
2018-12-30T00:53:43.136Z,15.58
2018-12-30T00:56:13.437Z,13.20
2018-12-30T00:58:43.491Z,12.93
2018-12-30T01:01:13.723Z,15.23
2018-12-30T01:03:44.031Z,14.15
2018-12-30T01:06:14.543Z,17.42
2018-12-30T01:08:44.922Z,13.43
2018-12-30T01:11:15.139Z,12.93
2018-12-30T01:13:45.115Z,13.43
2018-12-30T01:16:20.143Z,13.08
2018-12-30T01:18:50.274Z,14.47
2018-12-30T01:21:25.106Z,13.28
2018-12-30T01:23:53.191Z,12.68
2018-12-30T01:26:23.332Z,13.40
2018-12-30T01:28:54.122Z,12.00
2018-12-30T01:31:24.461Z,13.72
2018-12-30T01:33:54.570Z,13.15
2018-12-30T01:36:24.775Z,12.78
2018-12-30T01:38:54.916Z,12.15
2018-12-30T01:41:25.220Z,11.90
2018-12-30T01:43:55.349Z,14.85
2018-12-30T01:46:25.576Z,17.62
2018-12-30T01:48:55.667Z,12.03
2018-12-30T01:51:32.862Z,12.25
2018-12-30T01:53:57.671Z,12.73
2018-12-30T01:56:27.984Z,10.15
2018-12-30T01:58:58.291Z,14.07
2018-12-30T02:01:28.676Z,11.08
2018-12-30T02:03:58.854Z,11.22
2018-12-30T02:06:29.007Z,9.60
2018-12-30T02:08:59.423Z,12.60
2018-12-30T02:11:29.631Z,10.55
2018-12-30T02:14:00.005Z,12.33
2018-12-30T02:16:30.062Z,10.80
2018-12-30T02:19:00.281Z,10.15
2018-12-30T02:21:30.506Z,11.43
2018-12-30T02:24:00.624Z,12.03
2018-12-30T02:26:30.947Z,12.15
2018-12-30T02:29:01.168Z,10.63
2018-12-30T02:31:31.774Z,10.08
2018-12-30T02:34:01.932Z,10.55
2018-12-30T02:36:31.952Z,10.53
2018-12-30T02:39:02.074Z,11.12
2018-12-30T02:41:33.829Z,9.53
2018-12-30T02:44:04.032Z,11.63
2018-12-30T02:46:34.212Z,10.80
2018-12-30T02:49:04.478Z,12.68
2018-12-30T02:51:34.700Z,11.05
2018-12-30T02:54:05.249Z,12.00
2018-12-30T02:56:35.256Z,11.08
2018-12-30T02:59:06.083Z,10.75
2018-12-30T03:01:36.190Z,11.95
2018-12-30T03:04:06.527Z,9.65
2018-12-30T03:06:36.632Z,10.55
2018-12-30T03:09:07.984Z,10.13
2018-12-30T03:11:38.318Z,10.72
2018-12-30T03:14:08.433Z,10.30
2018-12-30T03:16:38.962Z,10.63
2018-12-30T03:19:08.905Z,10.63
2018-12-30T03:21:39.103Z,10.15
2018-12-30T03:24:09.222Z,9.33
2018-12-30T03:26:39.470Z,10.00
2018-12-30T03:29:09.865Z,9.18
2018-12-30T03:31:40.208Z,10.63
2018-12-30T03:34:10.326Z,10.13
2018-12-30T03:36:40.292Z,10.35
2018-12-30T03:39:10.465Z,9.93
2018-12-30T03:41:40.654Z,11.35
2018-12-30T03:44:10.784Z,8.78
2018-12-30T03:46:41.005Z,10.13
2018-12-30T03:49:11.125Z,9.70
2018-12-30T03:51:41.263Z,9.60
2018-12-30T03:54:11.391Z,9.38
2018-12-30T03:56:41.288Z,8.73
2018-12-30T03:59:11.410Z,10.53
2018-12-30T04:01:41.571Z,9.08
2018-12-30T04:04:11.855Z,9.83
2018-12-30T04:06:41.861Z,9.98
2018-12-30T04:09:12.210Z,8.05
2018-12-30T04:11:42.251Z,9.75
2018-12-30T04:14:12.415Z,8.33
2018-12-30T04:16:42.808Z,9.10
2018-12-30T04:19:12.855Z,9.18
2018-12-30T04:21:42.880Z,9.80
2018-12-30T04:24:13.106Z,10.80
2018-12-30T04:26:44.055Z,10.00
2018-12-30T04:29:14.261Z,9.23
2018-12-30T04:31:44.751Z,8.13
2018-12-30T04:34:15.012Z,10.10
2018-12-30T04:36:44.931Z,9.03
2018-12-30T04:39:15.208Z,8.43
2018-12-30T04:41:45.372Z,7.75
2018-12-30T04:44:15.590Z,8.88
2018-12-30T04:46:45.622Z,7.62
2018-12-30T04:49:15.634Z,8.23
2018-12-30T04:51:45.643Z,9.38
2018-12-30T04:54:15.862Z,8.50
2018-12-30T04:56:46.003Z,10.25
2018-12-30T04:59:15.995Z,8.00
2018-12-30T05:01:46.139Z,9.18
2018-12-30T05:04:16.136Z,9.40
2018-12-30T05:06:46.359Z,7.15
2018-12-30T05:09:16.495Z,7.70
2018-12-30T05:11:46.595Z,8.25
2018-12-30T05:14:16.638Z,8.03
2018-12-30T05:16:46.754Z,7.75
2018-12-30T05:19:16.979Z,7.33
2018-12-30T05:21:46.969Z,8.90
2018-12-30T05:24:16.986Z,8.55
2018-12-30T05:26:47.019Z,11.15
2018-12-30T05:29:17.146Z,8.15
2018-12-30T05:31:47.254Z,8.93
2018-12-30T05:34:17.360Z,7.25
2018-12-30T05:36:47.478Z,9.55
2018-12-30T05:39:17.520Z,7.87
2018-12-30T05:41:47.515Z,8.20
2018-12-30T05:44:18.665Z,8.08
2018-12-30T05:46:48.588Z,7.78
2018-12-30T05:49:18.677Z,18.57
2018-12-30T05:51:48.709Z,7.40
2018-12-30T05:54:18.747Z,9.30
2018-12-30T05:56:49.067Z,8.23
2018-12-30T05:59:19.294Z,7.22
2018-12-30T06:01:49.427Z,7.10
2018-12-30T06:04:19.607Z,6.42
2018-12-30T06:06:49.725Z,7.17
2018-12-30T06:09:19.927Z,6.40
2018-12-30T06:11:49.984Z,8.00
2018-12-30T06:14:19.950Z,7.70
2018-12-30T06:16:50.252Z,7.42
2018-12-30T06:19:20.426Z,6.50
2018-12-30T06:21:51.526Z,7.10
2018-12-30T06:24:21.618Z,8.20
2018-12-30T06:26:51.751Z,9.13
2018-12-30T06:29:21.825Z,8.20
2018-12-30T06:31:52.253Z,7.58
2018-12-30T06:34:25.387Z,7.58
2018-12-30T06:36:55.463Z,7.42
2018-12-30T06:39:25.617Z,8.58
2018-12-30T06:41:55.715Z,6.55
2018-12-30T06:44:25.723Z,7.30
2018-12-30T06:46:55.934Z,11.78
2018-12-30T06:49:26.053Z,7.35
2018-12-30T06:51:56.286Z,8.13
2018-12-30T06:54:26.496Z,8.38
2018-12-30T06:56:56.878Z,6.53
2018-12-30T06:59:27.964Z,8.90
2018-12-30T07:01:58.082Z,9.88
2018-12-30T07:04:28.302Z,7.58
2018-12-30T07:06:58.344Z,8.30
2018-12-30T07:09:28.486Z,8.23
2018-12-30T07:11:59.459Z,6.75
2018-12-30T07:14:29.615Z,9.63
2018-12-30T07:16:59.602Z,7.55
2018-12-30T07:19:29.737Z,8.25
2018-12-30T07:21:59.745Z,10.15
2018-12-30T07:24:29.831Z,7.65
2018-12-30T07:27:01.017Z,9.40
2018-12-30T07:29:31.099Z,10.88
2018-12-30T07:32:01.409Z,16.52
2018-12-30T07:34:31.580Z,12.58
2018-12-30T07:37:01.867Z,9.03
2018-12-30T07:39:32.043Z,8.65
2018-12-30T07:42:02.240Z,10.82
2018-12-30T07:44:32.292Z,15.93
2018-12-30T07:47:02.530Z,8.30
2018-12-30T07:49:32.579Z,11.75
2018-12-30T07:52:02.924Z,11.53
2018-12-30T07:54:33.042Z,12.65
2018-12-30T07:57:03.165Z,14.90
2018-12-30T07:59:33.536Z,17.00
2018-12-30T08:02:03.667Z,17.02
2018-12-30T08:04:33.790Z,17.20
2018-12-30T08:07:04.896Z,11.75
2018-12-30T08:09:35.336Z,15.25
2018-12-30T08:12:05.465Z,14.47
2018-12-30T08:14:35.802Z,10.85
2018-12-30T08:17:06.822Z,11.80
2018-12-30T08:19:37.219Z,12.03
2018-12-30T08:22:07.894Z,10.88
2018-12-30T08:24:38.122Z,10.32
2018-12-30T08:27:08.239Z,10.55
2018-12-30T08:29:38.539Z,10.60
2018-12-30T08:32:08.737Z,9.15
2018-12-30T08:34:38.947Z,13.65
2018-12-30T08:37:08.974Z,10.58
2018-12-30T08:39:40.213Z,12.95
2018-12-30T08:42:10.439Z,39.35
2018-12-30T08:44:40.374Z,44.15
2018-12-30T08:47:10.731Z,56.45
2018-12-30T08:49:43.626Z,40.85
2018-12-30T08:52:15.367Z,38.17
2018-12-30T08:54:46.806Z,33.10
2018-12-30T08:57:18.357Z,33.42
2018-12-30T08:59:48.447Z,32.90
2018-12-30T09:02:20.819Z,32.65
2018-12-30T09:04:50.973Z,27.85
2018-12-30T09:07:27.026Z,27.65
2018-12-30T09:09:57.163Z,29.77
2018-12-30T09:12:27.274Z,24.07
2018-12-30T09:14:57.236Z,27.17
2018-12-30T09:17:27.571Z,24.00
2018-12-30T09:19:57.863Z,27.17
2018-12-30T09:22:28.100Z,23.50
2018-12-30T09:24:59.371Z,23.38
2018-12-30T09:27:30.879Z,23.55
2018-12-30T09:30:00.876Z,25.65
2018-12-30T09:32:31.583Z,20.72
2018-12-30T09:35:01.914Z,19.90
2018-12-30T09:37:32.107Z,20.20
2018-12-30T09:40:02.361Z,20.15
2018-12-30T09:42:32.484Z,21.50
2018-12-30T09:45:02.558Z,24.20
2018-12-30T09:47:32.587Z,20.37
2018-12-30T09:50:02.571Z,23.70
2018-12-30T09:52:32.927Z,23.00
2018-12-30T09:55:03.111Z,22.10
2018-12-30T09:57:33.248Z,19.12
2018-12-30T10:00:03.889Z,17.30
2018-12-30T10:02:34.003Z,18.52
2018-12-30T10:05:04.465Z,17.10
2018-12-30T10:07:34.583Z,18.82
2018-12-30T10:10:05.511Z,17.73
2018-12-30T10:12:35.735Z,18.60
2018-12-30T10:15:10.001Z,20.45
2018-12-30T10:17:38.008Z,18.90
2018-12-30T10:20:08.977Z,17.10
2018-12-30T10:22:39.368Z,15.83
2018-12-30T10:25:11.517Z,18.07
2018-12-30T10:27:57.627Z,18.32
2018-12-30T10:30:27.815Z,18.52
2018-12-30T10:32:58.287Z,16.65
2018-12-30T10:35:28.647Z,18.40
2018-12-30T10:37:58.808Z,14.25
2018-12-30T10:40:29.375Z,18.32
2018-12-30T10:42:59.459Z,23.60
2018-12-30T10:45:29.729Z,22.22
2018-12-30T10:47:59.781Z,16.30
2018-12-30T10:50:29.995Z,19.55
2018-12-30T10:53:00.247Z,18.60
2018-12-30T10:55:30.710Z,17.95
2018-12-30T10:58:00.989Z,19.85
2018-12-30T11:00:31.354Z,14.78
2018-12-30T11:03:01.589Z,13.10
2018-12-30T11:05:31.783Z,15.58
2018-12-30T11:08:01.811Z,13.85
2018-12-30T11:10:32.107Z,15.20
2018-12-30T11:13:02.131Z,15.45
2018-12-30T11:15:32.581Z,14.28
2018-12-30T11:18:04.030Z,12.88
2018-12-30T11:20:34.148Z,13.22
2018-12-30T11:23:04.411Z,13.25
2018-12-30T11:25:34.811Z,14.07
2018-12-30T11:28:05.435Z,17.55
2018-12-30T11:30:36.452Z,13.20
2018-12-30T11:33:07.735Z,15.30
2018-12-30T11:35:38.513Z,16.25
2018-12-30T11:38:09.442Z,15.18
2018-12-30T11:40:39.595Z,13.32
2018-12-30T11:43:10.568Z,14.38
2018-12-30T11:45:40.749Z,14.23
2018-12-30T11:48:11.135Z,14.55
2018-12-30T11:50:42.087Z,14.75
2018-12-30T11:53:12.588Z,14.38
2018-12-30T11:55:43.894Z,16.97
2018-12-30T11:58:13.950Z,15.93
2018-12-30T12:00:44.942Z,16.67
2018-12-30T12:03:15.290Z,19.17
2018-12-30T12:05:45.695Z,15.60
2018-12-30T12:08:15.637Z,20.72
2018-12-30T12:10:45.553Z,19.02
2018-12-30T12:13:15.491Z,15.43
2018-12-30T12:15:45.384Z,18.15
2018-12-30T12:18:15.302Z,12.58
2018-12-30T12:20:45.270Z,12.60
2018-12-30T12:23:16.701Z,13.60
2018-12-30T12:25:47.094Z,15.08
2018-12-30T12:28:17.247Z,16.17
2018-12-30T12:30:47.276Z,16.40
2018-12-30T12:33:17.391Z,14.13
2018-12-30T12:35:47.435Z,15.85
2018-12-30T12:38:17.508Z,16.27
2018-12-30T12:40:47.817Z,13.85
2018-12-30T12:43:18.091Z,14.45
2018-12-30T12:45:48.115Z,11.63
2018-12-30T12:48:18.398Z,13.18
2018-12-30T12:50:48.378Z,14.50
2018-12-30T12:53:18.416Z,14.90
2018-12-30T12:55:48.785Z,11.33
2018-12-30T12:58:20.350Z,16.12
2018-12-30T13:00:50.559Z,12.58
2018-12-30T13:03:21.007Z,13.35
2018-12-30T13:05:51.073Z,12.85
2018-12-30T13:08:21.155Z,12.85
2018-12-30T13:10:51.380Z,12.65
2018-12-30T13:13:21.742Z,12.10
2018-12-30T13:15:53.563Z,11.80
2018-12-30T13:18:24.525Z,12.82
2018-12-30T13:20:55.138Z,11.97
2018-12-30T13:23:25.540Z,11.35
2018-12-30T13:25:55.867Z,11.90
2018-12-30T13:28:27.293Z,12.73
2018-12-30T13:30:57.532Z,10.45
2018-12-30T13:33:27.755Z,14.38
2018-12-30T13:35:58.368Z,12.50
2018-12-30T13:38:28.884Z,12.58
2018-12-30T13:40:59.656Z,12.65
2018-12-30T13:43:29.779Z,10.50
2018-12-30T13:46:00.035Z,11.10
2018-12-30T13:48:30.211Z,11.78
2018-12-30T13:51:00.986Z,12.35
2018-12-30T13:53:32.003Z,14.68
2018-12-30T13:56:02.338Z,10.98
2018-12-30T13:58:34.064Z,14.20
2018-12-30T14:01:04.993Z,11.53
2018-12-30T14:03:35.364Z,10.58
2018-12-30T14:06:05.781Z,12.13
2018-12-30T14:08:36.058Z,9.98
2018-12-30T14:11:06.828Z,9.35
2018-12-30T14:13:37.249Z,11.30
2018-12-30T14:16:07.616Z,15.40
2018-12-30T14:18:37.831Z,11.22
2018-12-30T14:21:07.966Z,12.00
2018-12-30T14:23:38.547Z,11.15
2018-12-30T14:26:09.095Z,11.68
2018-12-30T14:28:39.651Z,11.50
2018-12-30T14:31:09.851Z,10.40
2018-12-30T14:33:40.122Z,10.03
2018-12-30T14:36:11.668Z,11.90
2018-12-30T14:38:42.111Z,10.63
2018-12-30T14:41:12.415Z,11.80
2018-12-30T14:43:42.654Z,10.28
2018-12-30T14:46:12.745Z,10.20
2018-12-30T14:48:42.879Z,9.45
2018-12-30T14:51:13.823Z,9.33
2018-12-30T14:53:44.018Z,10.35
2018-12-30T14:56:14.179Z,8.95
2018-12-30T14:58:44.540Z,9.10
2018-12-30T15:01:15.220Z,8.90
2018-12-30T15:03:45.408Z,9.35
2018-12-30T15:06:15.992Z,9.98
2018-12-30T15:08:45.959Z,9.13
2018-12-30T15:11:16.096Z,9.70
2018-12-30T15:13:46.766Z,9.20
2018-12-30T15:16:18.529Z,11.40
2018-12-30T15:18:50.207Z,11.05
2018-12-30T15:21:20.499Z,8.00
2018-12-30T15:23:50.815Z,9.75
2018-12-30T15:26:21.216Z,9.80
2018-12-30T15:28:51.451Z,9.45
2018-12-30T15:31:22.222Z,10.20
2018-12-30T15:33:52.723Z,9.38
2018-12-30T15:36:23.241Z,8.08
2018-12-30T15:38:53.932Z,9.85
2018-12-30T15:41:24.202Z,8.83
2018-12-30T15:43:54.695Z,9.68
2018-12-30T15:46:25.047Z,8.70
2018-12-30T15:48:55.617Z,8.83
2018-12-30T15:51:26.709Z,9.43
2018-12-30T15:53:57.441Z,9.53
2018-12-30T15:56:27.676Z,9.20
2018-12-30T15:58:58.502Z,10.23
2018-12-30T16:01:30.179Z,7.95
2018-12-30T16:04:00.911Z,9.28
2018-12-30T16:06:31.526Z,7.78
2018-12-30T16:09:02.169Z,8.63
2018-12-30T16:11:35.614Z,9.18
2018-12-30T16:14:06.137Z,9.05
2018-12-30T16:16:36.872Z,9.60
2018-12-30T16:19:07.347Z,7.67
2018-12-30T16:21:38.639Z,7.28
2018-12-30T16:24:11.817Z,8.98
2018-12-30T16:26:42.865Z,7.87
2018-12-30T16:29:16.765Z,10.50
2018-12-30T16:31:47.503Z,11.53
2018-12-30T16:34:18.116Z,10.10
2018-12-30T16:36:50.383Z,11.70
2018-12-30T16:39:22.445Z,8.90
2018-12-30T16:41:57.930Z,7.78
2018-12-30T16:44:32.096Z,7.65
2018-12-30T16:47:05.404Z,8.20
2018-12-30T16:49:35.864Z,9.15
2018-12-30T16:52:06.241Z,17.80
2018-12-30T16:54:39.584Z,23.50
2018-12-30T16:57:10.605Z,21.87
2018-12-30T16:59:45.406Z,26.35
2018-12-30T17:02:15.892Z,19.32
2018-12-30T17:04:47.750Z,26.20
2018-12-30T17:07:19.892Z,17.00
2018-12-30T17:09:50.432Z,23.32
2018-12-30T17:12:22.496Z,21.17
2018-12-30T17:15:01.608Z,13.43
2018-12-30T17:17:41.251Z,16.07
2018-12-30T17:20:18.770Z,16.15
2018-12-30T17:22:51.978Z,13.68
2018-12-30T17:25:32.791Z,15.98
2018-12-30T17:28:03.261Z,18.55
2018-12-30T17:30:33.771Z,18.15
2018-12-30T17:33:04.815Z,20.32
2018-12-30T17:35:35.832Z,21.02
2018-12-30T17:38:06.376Z,25.00
2018-12-30T17:40:38.663Z,20.48
2018-12-30T17:43:09.495Z,18.48
2018-12-30T17:45:40.657Z,19.95
2018-12-30T17:48:11.822Z,20.12
2018-12-30T17:50:45.072Z,18.32
2018-12-30T17:53:15.944Z,19.25
2018-12-30T17:55:50.805Z,19.00
2018-12-30T17:58:19.044Z,18.73
2018-12-30T18:00:51.312Z,20.90
2018-12-30T18:03:21.776Z,18.05
2018-12-30T18:05:53.296Z,17.82
2018-12-30T18:08:23.872Z,13.83
2018-12-30T18:10:54.404Z,15.35
2018-12-30T18:13:28.231Z,17.80
2018-12-30T18:15:58.712Z,18.75
2018-12-30T18:18:29.497Z,18.65
2018-12-30T18:21:00.088Z,17.60
2018-12-30T18:23:30.798Z,14.98
2018-12-30T18:26:01.762Z,14.80
2018-12-30T18:28:32.376Z,14.80
2018-12-30T18:31:03.224Z,15.13
2018-12-30T18:33:35.156Z,15.48
2018-12-30T18:36:07.486Z,15.43
2018-12-30T18:38:38.358Z,14.03
2018-12-30T18:41:08.878Z,15.32
2018-12-30T18:43:40.440Z,18.82
2018-12-30T18:46:14.695Z,15.72
2018-12-30T18:48:46.589Z,17.67
2018-12-30T18:51:16.941Z,20.17
2018-12-30T18:53:47.137Z,17.10
2018-12-30T18:56:17.356Z,14.80
2018-12-30T18:58:48.119Z,14.00
2018-12-30T19:01:18.997Z,17.17
2018-12-30T19:03:49.902Z,14.38
2018-12-30T19:06:20.877Z,18.27
2018-12-30T19:08:51.675Z,13.90
2018-12-30T19:11:25.441Z,14.55
2018-12-30T19:13:56.772Z,15.30
2018-12-30T19:16:27.381Z,15.88
2018-12-30T19:18:58.535Z,13.85
2018-12-30T19:21:30.098Z,13.53
2018-12-30T19:24:01.450Z,16.62
2018-12-30T19:26:32.428Z,14.07
2018-12-30T19:29:03.313Z,15.93
2018-12-30T19:31:34.172Z,15.75
2018-12-30T19:34:07.259Z,14.30
2018-12-30T19:36:38.007Z,15.35
2018-12-30T19:39:08.857Z,14.63
2018-12-30T19:41:39.738Z,16.23
2018-12-30T19:44:10.455Z,21.35
2018-12-30T19:46:41.240Z,18.73
2018-12-30T19:49:12.867Z,16.07
2018-12-30T19:51:44.909Z,19.20
2018-12-30T19:54:15.555Z,21.52
2018-12-30T19:56:45.992Z,22.02
2018-12-30T19:59:19.471Z,25.20
2018-12-30T20:01:50.716Z,19.32
2018-12-30T20:04:21.992Z,19.82
2018-12-30T20:06:52.851Z,18.45
2018-12-30T20:09:23.532Z,24.20
2018-12-30T20:11:54.372Z,19.52
2018-12-30T20:14:25.441Z,30.72
2018-12-30T20:16:56.661Z,23.15
2018-12-30T20:19:27.598Z,22.20
2018-12-30T20:21:58.702Z,19.67
2018-12-30T20:24:29.655Z,16.15
2018-12-30T20:27:00.447Z,19.07
2018-12-30T20:29:31.144Z,19.50
2018-12-30T20:38:30.109Z,14.43
2018-12-30T20:41:02.280Z,18.07
2018-12-30T20:43:33.233Z,15.00
2018-12-30T20:46:06.533Z,15.58
2018-12-30T20:48:37.598Z,15.90
2018-12-30T20:51:11.560Z,14.23
2018-12-30T20:53:42.330Z,15.78
2018-12-30T20:56:14.792Z,15.05
2018-12-30T20:58:51.074Z,15.40
2018-12-30T21:01:27.155Z,12.47
2018-12-30T21:03:59.380Z,14.50
2018-12-30T21:06:30.733Z,13.62
2018-12-30T21:09:02.535Z,12.73
2018-12-30T21:11:35.413Z,13.00
2018-12-30T21:14:06.423Z,15.48
2018-12-30T21:16:37.742Z,17.62
2018-12-30T21:19:12.227Z,15.65
2018-12-30T21:21:44.020Z,27.05
2018-12-30T21:24:15.334Z,15.80
2018-12-30T21:26:47.063Z,14.38
2018-12-30T21:29:18.370Z,16.17
2018-12-30T21:31:49.059Z,16.48
2018-12-30T21:34:20.323Z,12.85
2018-12-30T21:36:51.733Z,13.90
2018-12-30T21:39:24.679Z,12.63
2018-12-30T21:41:58.240Z,12.90
2018-12-30T21:44:30.057Z,16.32
2018-12-30T21:47:03.352Z,23.75
2018-12-30T21:49:36.141Z,11.08
2018-12-30T21:52:07.981Z,10.35
2018-12-30T21:54:38.783Z,11.90
2018-12-30T21:57:10.296Z,11.20
2018-12-30T21:59:40.931Z,12.35
2018-12-30T22:02:13.941Z,20.55
2018-12-30T22:04:49.431Z,14.78
2018-12-30T22:07:21.091Z,14.03
2018-12-30T22:09:52.459Z,15.75
2018-12-30T22:12:23.775Z,14.03
2018-12-30T22:14:55.018Z,12.43
2018-12-30T22:17:26.540Z,9.93
2018-12-30T22:19:58.744Z,13.78
2018-12-30T22:22:30.621Z,9.95
2018-12-30T22:25:02.459Z,11.73
2018-12-30T22:27:33.378Z,10.60
2018-12-30T22:30:05.521Z,9.48
2018-12-30T22:32:36.530Z,9.63
2018-12-30T22:35:07.885Z,8.65
2018-12-30T22:37:44.416Z,9.90
2018-12-30T22:40:19.566Z,12.10
2018-12-30T22:42:52.587Z,9.80
2018-12-30T22:45:22.900Z,10.13
2018-12-30T22:47:54.271Z,11.75
2018-12-30T22:50:25.342Z,11.75
2018-12-30T22:52:55.703Z,12.03
2018-12-30T22:55:26.154Z,11.93
2018-12-30T22:57:56.963Z,16.23
2018-12-30T23:00:41.928Z,17.15
2018-12-30T23:03:13.119Z,9.50
2018-12-30T23:05:43.811Z,13.28
2018-12-30T23:08:14.663Z,9.78
2018-12-30T23:10:45.433Z,12.37
2018-12-30T23:13:17.264Z,9.58
2018-12-30T23:15:47.637Z,12.68
2018-12-30T23:18:18.083Z,9.08
2018-12-30T23:20:48.744Z,10.23
2018-12-30T23:23:18.798Z,10.85
2018-12-30T23:25:49.184Z,8.30
2018-12-30T23:28:20.368Z,10.25
2018-12-30T23:30:51.471Z,8.35
2018-12-30T23:33:22.192Z,9.90
2018-12-30T23:35:52.858Z,7.70
2018-12-30T23:38:24.365Z,12.75
2018-12-30T23:40:55.023Z,10.90
2018-12-30T23:43:25.102Z,11.93
2018-12-30T23:45:55.503Z,7.62
2018-12-30T23:48:26.538Z,11.33
2018-12-30T23:50:56.910Z,7.58
2018-12-30T23:53:27.191Z,9.33
2018-12-30T23:55:57.351Z,8.45
2018-12-30T23:58:27.462Z,12.90
